Time;durP1;ratioP1;P1;durP2;ratioP2;P2;SDS_P1;SDS_P2;PMS_P1;PMS_P2;Temp;Humidity;BMP_temperature;BMP_pressure;BME280_temperature;BME280_humidity;BME280_pressure;Samples;Min_cycle;Max_cycle;Signal;HPM_P1;HPM_P2
2022/08/25 00:00:59;;;;;;;;;;;;;;;18.78;93.59;100996.70;1642285;86;20242;-77
2022/08/25 00:03:25;;;;;;;;;;;;;;;18.77;93.64;100993.69;1655963;86;21605;-78
2022/08/25 00:05:51;;;;;;;;;;;;;;;18.77;93.69;100985.58;1645906;86;20306;-78
2022/08/25 00:08:17;;;;;;;;;;;;;;;18.80;93.74;100987.86;1642222;86;20777;-78
2022/08/25 00:10:42;;;;;;;;;;;;;;;18.83;93.81;100987.44;1642218;86;20182;-78
2022/08/25 00:13:08;;;;;;;;;;;;;;;18.83;93.83;100982.86;1641741;86;20254;-79
2022/08/25 00:15:35;;;;;;;;;;;;;;;18.82;93.89;100983.09;1642694;86;21617;-78
2022/08/25 00:18:00;;;;;;;;;;;;;;;18.83;93.94;100982.03;1645576;86;20265;-78
2022/08/25 00:20:27;;;;;;;;;;;;;;;18.81;93.97;100986.31;1657085;86;21279;-78
2022/08/25 00:22:54;;;;;;;;;;;;;;;18.80;94.02;100976.53;1645323;86;20385;-79
2022/08/25 00:25:21;;;;;;;;;;;;;;;18.82;94.09;100972.28;1653092;86;20194;-78
2022/08/25 00:27:47;;;;;;;;;;;;;;;18.82;94.11;100974.98;1647823;86;22489;-78
2022/08/25 00:30:15;;;;;;;;;;;;;;;18.83;94.15;100977.46;1641985;86;20317;-78
2022/08/25 00:32:41;;;;;;;;;;;;;;;18.82;94.15;100980.39;1640265;86;20174;-78
2022/08/25 00:35:07;;;;;;;;;;;;;;;18.78;94.19;100976.44;1653473;86;20274;-78
2022/08/25 00:37:35;;;;;;;;;;;;;;;18.79;94.25;100980.78;1642655;86;20163;-78
2022/08/25 00:40:02;;;;;;;;;;;;;;;18.79;94.29;100978.08;1652494;86;22519;-78
2022/08/25 00:42:28;;;;;;;;;;;;;;;18.80;94.33;100975.70;1647760;86;20184;-78
2022/08/25 00:44:55;;;;;;;;;;;;;;;18.76;94.34;100971.23;1621956;85;20167;-78
2022/08/25 00:47:20;;;;;;;;;;;;;;;18.74;94.36;100973.84;1618701;87;20284;-78
2022/08/25 00:49:56;;;;;;;;;;;;;;;18.71;94.37;100970.20;1619164;87;20295;-78
2022/08/25 00:52:30;;;;;;;;;;;;;;;18.70;94.45;100976.13;1619005;87;21514;-78
2022/08/25 00:55:00;;;;;;;;;;;;;;;18.65;94.46;100968.31;1618953;87;20681;-78
2022/08/25 00:57:28;;;;;;;;;;;;;;;18.63;94.49;100973.95;1622920;87;20118;-78
2022/08/25 00:59:54;;;;;;;;;;;;;;;18.61;94.54;100971.98;1622198;87;20158;-78
2022/08/25 01:02:20;;;;;;;;;;;;;;;18.58;94.55;100967.52;1620405;88;20167;-79
2022/08/25 01:04:46;;;;;;;;;;;;;;;18.53;94.55;100970.00;1618472;87;22422;-78
2022/08/25 01:07:13;;;;;;;;;;;;;;;18.55;94.61;100973.31;1622920;87;20642;-78
2022/08/25 01:09:39;;;;;;;;;;;;;;;18.57;94.68;100960.45;1625119;87;20175;-78
2022/08/25 01:12:06;;;;;;;;;;;;;;;18.55;94.67;100954.41;1602659;88;40343;-78
2022/08/25 01:14:32;;;;;;;;;;;;;;;18.52;94.71;100960.22;1618682;87;20438;-78
2022/08/25 01:16:58;;;;;;;;;;;;;;;18.43;94.71;100967.69;1621454;87;21767;-78
2022/08/25 01:19:24;;;;;;;;;;;;;;;18.36;94.72;100970.91;1620865;87;20258;-79
2022/08/25 01:21:51;;;;;;;;;;;;;;;18.33;94.79;100969.97;1600084;88;20426;-78
2022/08/25 01:24:23;;;;;;;;;;;;;;;18.31;94.87;100968.81;1618885;87;20467;-78
2022/08/25 01:26:49;;;;;;;;;;;;;;;18.30;94.91;100969.84;1627118;87;20178;-78
2022/08/25 01:29:24;;;;;;;;;;;;;;;18.28;94.93;100965.70;1618736;87;22161;-78
2022/08/25 01:31:51;;;;;;;;;;;;;;;18.25;94.95;100962.89;1619198;87;20162;-78
2022/08/25 01:34:20;;;;;;;;;;;;;;;18.22;94.97;100963.31;1610161;87;20223;-78
2022/08/25 01:36:46;;;;;;;;;;;;;;;18.16;94.98;100966.81;1618903;87;20172;-78
2022/08/25 01:39:12;;;;;;;;;;;;;;;18.18;95.08;100973.38;1618280;87;20229;-78
2022/08/25 01:42:00;;;;;;;;;;;;;;;18.15;95.09;100970.57;1618990;87;21518;-78
2022/08/25 01:44:26;;;;;;;;;;;;;;;18.11;95.13;100969.31;1619810;86;20174;-78
2022/08/25 01:46:53;;;;;;;;;;;;;;;18.07;95.14;100967.22;1620230;88;20325;-78
2022/08/25 01:49:19;;;;;;;;;;;;;;;18.07;95.17;100970.75;1598692;88;20167;-78
2022/08/25 01:51:51;;;;;;;;;;;;;;;18.03;95.20;100972.19;1619045;87;20183;-78
2022/08/25 01:54:17;;;;;;;;;;;;;;;18.03;95.22;100972.19;1618726;87;22357;-78
2022/08/25 01:56:42;;;;;;;;;;;;;;;18.02;95.24;100971.03;1620374;87;20270;-78
2022/08/25 01:59:08;;;;;;;;;;;;;;;18.01;95.26;100966.18;1623273;87;20339;-78
2022/08/25 02:01:34;;;;;;;;;;;;;;;18.00;95.31;100965.86;1610253;87;20206;-78
2022/08/25 02:04:00;;;;;;;;;;;;;;;17.94;95.29;100968.03;1629595;87;20215;-78
2022/08/25 02:06:28;;;;;;;;;;;;;;;17.91;95.30;100961.16;1618697;87;21506;-78
2022/08/25 02:08:57;;;;;;;;;;;;;;;17.92;95.32;100961.98;1617732;87;20469;-78
2022/08/25 02:11:23;;;;;;;;;;;;;;;17.94;95.37;100965.34;1619115;87;20188;-78
2022/08/25 02:13:51;;;;;;;;;;;;;;;17.92;95.39;100966.88;1619115;87;20190;-78
2022/08/25 02:16:19;;;;;;;;;;;;;;;17.87;95.37;100979.33;1619132;87;20199;-78
2022/08/25 02:18:46;;;;;;;;;;;;;;;17.85;95.41;100978.17;1618580;87;22083;-78
2022/08/25 02:21:13;;;;;;;;;;;;;;;17.85;95.49;100974.12;1618087;87;20362;-78
2022/08/25 02:23:40;;;;;;;;;;;;;;;17.86;95.52;100976.30;1618710;88;20179;-78
2022/08/25 02:26:07;;;;;;;;;;;;;;;17.86;95.56;100980.35;1626693;87;20185;-78
2022/08/25 02:28:33;;;;;;;;;;;;;;;17.85;95.58;100979.52;1619123;87;20159;-78
2022/08/25 02:30:58;;;;;;;;;;;;;;;17.89;95.59;100979.43;1618445;87;21021;-78
2022/08/25 02:33:24;;;;;;;;;;;;;;;17.85;95.57;100975.47;1618912;87;20303;-78
2022/08/25 02:35:50;;;;;;;;;;;;;;;17.79;95.59;100978.16;1618339;87;20290;-78
2022/08/25 02:38:17;;;;;;;;;;;;;;;17.80;95.63;100977.13;1618584;87;20170;-78
2022/08/25 02:40:43;;;;;;;;;;;;;;;17.78;95.63;100973.78;1619135;87;20168;-78
2022/08/25 02:43:09;;;;;;;;;;;;;;;17.78;95.66;100974.62;1619052;87;21572;-78
2022/08/25 02:45:35;;;;;;;;;;;;;;;17.75;95.68;100979.59;1644608;86;20152;-78
2022/08/25 02:48:02;;;;;;;;;;;;;;;17.70;95.67;100980.70;1645001;86;20163;-78
2022/08/25 02:50:28;;;;;;;;;;;;;;;17.71;95.72;100975.63;1652865;85;20827;-78
2022/08/25 02:52:54;;;;;;;;;;;;;;;17.69;95.69;100973.66;1671837;85;20669;-78
2022/08/25 02:55:20;;;;;;;;;;;;;;;17.61;95.69;100977.36;1668169;86;21419;-78
2022/08/25 02:57:46;;;;;;;;;;;;;;;17.60;95.71;100968.11;1660556;85;20183;-78
2022/08/25 03:00:13;;;;;;;;;;;;;;;17.58;95.72;100968.84;1653008;86;20370;-78
2022/08/25 03:02:40;;;;;;;;;;;;;;;17.56;95.74;100966.84;1644689;86;20183;-78
2022/08/25 03:05:06;;;;;;;;;;;;;;;17.51;95.74;100959.34;1641773;86;20171;-78
2022/08/25 03:07:33;;;;;;;;;;;;;;;17.54;95.80;100950.84;1667035;86;21513;-78
2022/08/25 03:10:01;;;;;;;;;;;;;;;17.54;95.80;100951.36;1670443;86;20177;-77
2022/08/25 03:12:28;;;;;;;;;;;;;;;17.53;95.85;100956.43;1636462;86;20644;-78
2022/08/25 03:14:54;;;;;;;;;;;;;;;17.54;95.88;100948.66;1670427;86;20208;-78
2022/08/25 03:17:19;;;;;;;;;;;;;;;17.49;95.90;100946.05;1666014;86;20186;-78
2022/08/25 03:19:45;;;;;;;;;;;;;;;17.44;95.88;100942.30;1632880;86;21365;-78
2022/08/25 03:22:11;;;;;;;;;;;;;;;17.45;95.98;100947.48;1662967;86;20239;-78
2022/08/25 03:24:37;;;;;;;;;;;;;;;17.45;96.01;100943.98;1651380;86;20275;-78
2022/08/25 03:27:03;;;;;;;;;;;;;;;17.43;96.04;100940.12;1668082;86;20685;-78
2022/08/25 03:29:31;;;;;;;;;;;;;;;17.43;96.05;100944.16;1670351;85;20189;-77
2022/08/25 03:31:57;;;;;;;;;;;;;;;17.41;96.03;100944.06;1661079;86;21303;-78
2022/08/25 03:34:23;;;;;;;;;;;;;;;17.41;96.07;100944.06;1670236;86;20185;-78
2022/08/25 03:36:50;;;;;;;;;;;;;;;17.42;96.10;100941.66;1626836;86;20279;-78
2022/08/25 03:39:17;;;;;;;;;;;;;;;17.42;96.14;100953.28;1650518;86;20196;-78
2022/08/25 03:41:43;;;;;;;;;;;;;;;17.41;96.15;100948.94;1649956;86;20166;-78
2022/08/25 03:44:09;;;;;;;;;;;;;;;17.37;96.15;100953.06;1639780;86;21985;-78
2022/08/25 03:46:41;;;;;;;;;;;;;;;17.38;96.21;100952.02;1620164;87;20463;-78
2022/08/25 03:49:08;;;;;;;;;;;;;;;17.41;96.25;100954.33;1619319;87;20492;-78
2022/08/25 03:51:42;;;;;;;;;;;;;;;17.42;96.23;100957.33;1618856;87;20432;-78
2022/08/25 03:54:09;;;;;;;;;;;;;;;17.43;96.27;100952.25;1619287;87;20239;-78
2022/08/25 03:56:35;;;;;;;;;;;;;;;17.45;96.31;100946.67;1620009;87;21251;-78
2022/08/25 03:59:02;;;;;;;;;;;;;;;17.51;96.37;100953.11;1624758;87;20167;-78
2022/08/25 04:01:28;;;;;;;;;;;;;;;17.52;96.37;100950.23;1618926;87;20196;-78
2022/08/25 04:03:54;;;;;;;;;;;;;;;17.52;96.39;100949.39;1619400;87;20714;-78
2022/08/25 04:06:20;;;;;;;;;;;;;;;17.54;96.44;100945.97;1619230;87;20225;-78
2022/08/25 04:08:46;;;;;;;;;;;;;;;17.57;96.48;100949.63;1619338;87;21403;-78
2022/08/25 04:11:15;;;;;;;;;;;;;;;17.64;96.53;100948.63;1618320;87;20332;-78
2022/08/25 04:13:41;;;;;;;;;;;;;;;17.69;96.57;100946.17;1610330;87;20451;-78
2022/08/25 04:16:11;;;;;;;;;;;;;;;17.75;96.61;100949.91;1616598;87;20176;-78
2022/08/25 04:18:37;;;;;;;;;;;;;;;17.77;96.63;100948.66;1619489;87;20168;-78
2022/08/25 04:21:04;;;;;;;;;;;;;;;17.80;96.66;100947.45;1618676;87;21427;-78
2022/08/25 04:23:30;;;;;;;;;;;;;;;17.84;96.70;100945.98;1596527;88;20184;-78
2022/08/25 04:25:56;;;;;;;;;;;;;;;17.86;96.72;100941.23;1624122;87;20259;-78
2022/08/25 04:28:22;;;;;;;;;;;;;;;17.89;96.78;100946.21;1619394;87;20611;-78
2022/08/25 04:30:47;;;;;;;;;;;;;;;17.90;96.80;100946.53;1618903;87;20246;-78
2022/08/25 04:33:14;;;;;;;;;;;;;;;17.91;96.79;100949.52;1618973;87;21574;-78
2022/08/25 04:35:40;;;;;;;;;;;;;;;17.92;96.83;100949.84;1618431;87;21050;-78
2022/08/25 04:38:06;;;;;;;;;;;;;;;17.93;96.88;100945.61;1619186;87;20175;-78
2022/08/25 04:40:32;;;;;;;;;;;;;;;18.01;96.96;100948.64;1618844;87;20158;-78
2022/08/25 04:42:58;;;;;;;;;;;;;;;18.06;96.99;100954.23;1619265;87;20170;-78
2022/08/25 04:45:24;;;;;;;;;;;;;;;18.08;97.03;100955.39;1630645;86;22101;-79
2022/08/25 04:47:50;;;;;;;;;;;;;;;18.11;97.10;100957.16;1643093;86;20286;-78
2022/08/25 04:50:15;;;;;;;;;;;;;;;18.19;97.19;100954.25;1649948;86;20183;-78
2022/08/25 04:52:41;;;;;;;;;;;;;;;18.25;97.20;100957.49;1643135;86;20902;-78
2022/08/25 04:55:07;;;;;;;;;;;;;;;18.31;97.24;100952.61;1641619;86;20241;-78
2022/08/25 04:57:33;;;;;;;;;;;;;;;18.38;97.25;100949.91;1642865;86;21688;-78
2022/08/25 05:00:00;;;;;;;;;;;;;;;18.41;97.30;100957.08;1652710;86;20169;-79
2022/08/25 05:02:27;;;;;;;;;;;;;;;18.46;97.29;100957.30;1646522;86;20178;-79
2022/08/25 05:04:54;;;;;;;;;;;;;;;18.50;97.29;100957.72;1642719;86;20970;-78
2022/08/25 05:07:20;;;;;;;;;;;;;;;18.55;97.33;100962.50;1642498;86;20182;-79
2022/08/25 05:09:45;;;;;;;;;;;;;;;18.59;97.32;100958.35;1643110;86;21661;-79
2022/08/25 05:12:12;;;;;;;;;;;;;;;18.63;97.34;100959.09;1641985;86;20645;-79
2022/08/25 05:14:38;;;;;;;;;;;;;;;18.66;97.35;100954.61;1661442;86;20175;-78
2022/08/25 05:17:04;;;;;;;;;;;;;;;18.69;97.38;100956.06;1640845;86;20714;-78
2022/08/25 05:19:31;;;;;;;;;;;;;;;18.73;97.39;100955.95;1641220;86;20944;-79
2022/08/25 05:21:57;;;;;;;;;;;;;;;18.73;97.43;100950.55;1661609;86;21721;-79
2022/08/25 05:24:23;;;;;;;;;;;;;;;18.73;97.44;100950.55;1648092;86;20187;-79
2022/08/25 05:26:49;;;;;;;;;;;;;;;18.76;97.48;100950.13;1649181;86;20171;-79
2022/08/25 05:29:15;;;;;;;;;;;;;;;18.79;97.50;100952.41;1642740;86;21175;-78
2022/08/25 05:31:42;;;;;;;;;;;;;;;18.85;97.57;100947.53;1643161;86;20258;-78
2022/08/25 05:34:08;;;;;;;;;;;;;;;18.88;97.59;100942.53;1642542;86;22433;-79
2022/08/25 05:36:34;;;;;;;;;;;;;;;18.88;97.61;100943.05;1639210;86;20270;-79
2022/08/25 05:39:00;;;;;;;;;;;;;;;18.94;97.67;100942.20;1643113;86;20189;-79
2022/08/25 05:41:27;;;;;;;;;;;;;;;18.97;97.67;100940.42;1640211;86;20785;-78
2022/08/25 05:43:53;;;;;;;;;;;;;;;18.99;97.69;100944.28;1663512;86;20211;-78
2022/08/25 05:46:20;;;;;;;;;;;;;;;19.01;97.71;100952.48;1650680;86;21743;-79
2022/08/25 05:48:46;;;;;;;;;;;;;;;19.01;97.69;100951.64;1641603;86;20211;-79
2022/08/25 05:51:12;;;;;;;;;;;;;;;19.04;97.74;100949.35;1643166;86;20167;-79
2022/08/25 05:53:40;;;;;;;;;;;;;;;19.05;97.72;100952.89;1643136;86;20719;-78
2022/08/25 05:56:06;;;;;;;;;;;;;;;19.09;97.75;100950.08;1642276;86;20215;-78
2022/08/25 05:58:32;;;;;;;;;;;;;;;19.12;97.76;100951.83;1642667;86;21735;-78
2022/08/25 06:02:39;;;;;;;;;;;;;;;19.15;97.78;100950.57;1641805;86;20810;-78
2022/08/25 06:03:26;;;;;;;;;;;;;;;19.18;97.77;100949.63;1649498;86;20169;-78
2022/08/25 06:05:52;;;;;;;;;;;;;;;19.22;97.81;100953.57;1657386;86;20970;-79
2022/08/25 06:08:18;;;;;;;;;;;;;;;19.23;97.78;100953.05;1669401;86;20260;-79
2022/08/25 06:10:44;;;;;;;;;;;;;;;19.23;97.75;100955.23;1668829;86;21782;-78
2022/08/25 06:13:10;;;;;;;;;;;;;;;19.27;97.75;100954.30;1659969;86;20194;-79
2022/08/25 06:15:36;;;;;;;;;;;;;;;19.35;97.78;100954.87;1646171;86;20227;-78
2022/08/25 06:18:02;;;;;;;;;;;;;;;19.41;97.78;100964.89;1651133;86;20786;-78
2022/08/25 06:20:29;;;;;;;;;;;;;;;19.47;97.77;100967.77;1644336;86;20164;-78
2022/08/25 06:22:55;;;;;;;;;;;;;;;19.52;97.75;100962.56;1666187;86;21763;-78
2022/08/25 06:25:22;;;;;;;;;;;;;;;19.52;97.69;100963.91;1659233;86;20739;-79
2022/08/25 06:27:48;;;;;;;;;;;;;;;19.63;97.74;100960.02;1663781;86;20226;-78
2022/08/25 06:30:16;;;;;;;;;;;;;;;19.73;97.75;100963.61;1664282;86;20441;-79
2022/08/25 06:32:42;;;;;;;;;;;;;;;19.79;97.66;100962.73;1653556;86;20155;-78
2022/08/25 06:35:11;;;;;;;;;;;;;;;19.85;97.62;100963.22;1654862;86;22580;-78
2022/08/25 06:37:37;;;;;;;;;;;;;;;19.88;97.56;100961.42;1642692;86;20431;-78
2022/08/25 06:40:04;;;;;;;;;;;;;;;19.86;97.51;100967.59;1643263;86;20177;-78
2022/08/25 06:42:30;;;;;;;;;;;;;;;19.88;97.48;100970.90;1641640;86;20651;-78
2022/08/25 06:44:56;;;;;;;;;;;;;;;19.95;97.44;100961.70;1645324;86;20842;-78
2022/08/25 06:47:22;;;;;;;;;;;;;;;19.99;97.38;100972.92;1619175;87;21890;-78
2022/08/25 06:49:48;;;;;;;;;;;;;;;20.01;97.29;100970.02;1619256;87;20846;-78
2022/08/25 06:52:14;;;;;;;;;;;;;;;20.08;97.29;100965.39;1610472;87;20478;-78
2022/08/25 06:54:40;;;;;;;;;;;;;;;20.21;97.26;100970.19;1619220;87;20483;-79
2022/08/25 06:57:06;;;;;;;;;;;;;;;20.22;97.11;100965.09;1618339;87;20178;-78
2022/08/25 06:59:33;;;;;;;;;;;;;;;20.30;97.08;100973.51;1619120;87;21829;-78
2022/08/25 07:02:03;;;;;;;;;;;;;;;20.36;96.99;100981.58;1617976;87;20091;-78
2022/08/25 07:04:29;;;;;;;;;;;;;;;20.41;96.93;100970.89;1601847;87;20167;-78
2022/08/25 07:06:55;;;;;;;;;;;;;;;20.49;96.87;100970.32;1619229;87;20380;-78
2022/08/25 07:09:21;;;;;;;;;;;;;;;20.55;96.80;100969.45;1619310;87;20202;-79
2022/08/25 07:11:47;;;;;;;;;;;;;;;20.58;96.71;100970.37;1624495;87;21872;-79
2022/08/25 07:14:15;;;;;;;;;;;;;;;20.63;96.65;100974.58;1619319;87;20281;-78
2022/08/25 07:16:41;;;;;;;;;;;;;;;20.71;96.56;100967.53;1627689;87;20121;-79
2022/08/25 07:19:07;;;;;;;;;;;;;;;20.91;96.53;100964.94;1626021;87;20417;-79
2022/08/25 07:21:34;;;;;;;;;;;;;;;20.99;96.37;100974.67;1619393;87;20159;-79
2022/08/25 07:24:02;;;;;;;;;;;;;;;21.05;96.25;100971.58;1624656;87;21728;-78
2022/08/25 07:26:29;;;;;;;;;;;;;;;21.02;96.09;100967.96;1614800;87;20126;-77
2022/08/25 07:28:56;;;;;;;;;;;;;;;21.09;96.00;100969.55;1619275;87;20165;-77
2022/08/25 07:31:22;;;;;;;;;;;;;;;21.13;95.84;100964.02;1608705;87;20355;-77
2022/08/25 07:36:32;;;;;;;;;;;;;;;21.21;95.63;100963.73;1619663;87;21728;-77
2022/08/25 07:38:58;;;;;;;;;;;;;;;21.27;95.51;100965.53;1618619;87;21384;-77
2022/08/25 07:41:25;;;;;;;;;;;;;;;21.32;95.39;100972.45;1618522;87;20430;-77
2022/08/25 07:43:52;;;;;;;;;;;;;;;21.39;95.30;100980.55;1611496;87;20489;-77
2022/08/25 07:46:18;;;;;;;;;;;;;;;21.47;95.19;100968.00;1628336;87;20411;-76
2022/08/25 07:48:44;;;;;;;;;;;;;;;21.53;95.08;100969.00;1666414;85;22795;-77
2022/08/25 07:51:11;;;;;;;;;;;;;;;21.59;94.96;100967.55;1653120;85;20196;-77
2022/08/25 07:53:37;;;;;;;;;;;;;;;21.71;94.89;100971.69;1654095;85;20094;-77
2022/08/25 07:56:08;;;;;;;;;;;;;;;21.80;94.75;100964.88;1659105;85;20704;-77
2022/08/25 07:58:34;;;;;;;;;;;;;;;21.83;94.63;100968.48;1647036;85;20114;-77
2022/08/25 08:01:00;;;;;;;;;;;;;;;21.74;94.42;100973.95;1655077;85;21909;-77
2022/08/25 08:03:28;;;;;;;;;;;;;;;21.71;94.37;100977.92;1658135;85;21315;-77
2022/08/25 08:05:55;;;;;;;;;;;;;;;21.75;94.29;100975.05;1664010;85;20152;-77
2022/08/25 08:08:21;;;;;;;;;;;;;;;21.75;94.13;100975.58;1667208;85;21211;-77
2022/08/25 08:10:48;;;;;;;;;;;;;;;21.81;94.02;100976.05;1671705;85;20110;-78
2022/08/25 08:13:15;;;;;;;;;;;;;;;21.92;93.90;100977.19;1663246;85;22455;-77
2022/08/25 08:15:42;;;;;;;;;;;;;;;22.01;93.78;100977.98;1651383;85;20175;-77
2022/08/25 08:18:08;;;;;;;;;;;;;;;22.08;93.65;100977.36;1660457;85;20159;-77
2022/08/25 08:20:34;;;;;;;;;;;;;;;22.20;93.55;100976.84;1670356;85;20460;-77
2022/08/25 08:23:00;;;;;;;;;;;;;;;22.29;93.41;100976.83;1676693;85;20111;-78
2022/08/25 08:25:26;;;;;;;;;;;;;;;22.33;93.28;100973.95;1658820;85;21910;-77
2022/08/25 08:27:52;;;;;;;;;;;;;;;22.34;93.12;100974.23;1675255;85;20158;-77
2022/08/25 08:30:18;;;;;;;;;;;;;;;22.37;92.93;100974.31;1676685;85;20254;-77
2022/08/25 08:32:44;;;;;;;;;;;;;;;22.43;92.73;100976.61;1673084;85;20478;-77
2022/08/25 08:35:10;;;;;;;;;;;;;;;22.57;92.68;100976.70;1660610;85;20911;-77
2022/08/25 08:37:40;;;;;;;;;;;;;;;22.66;92.52;100971.23;1638975;85;21485;-77
2022/08/25 08:40:08;;;;;;;;;;;;;;;22.76;92.34;100974.22;1660026;85;20187;-76
2022/08/25 08:42:51;;;;;;;;;;;;;;;22.92;92.12;100977.59;1648345;85;20119;-77
2022/08/25 08:45:33;;;;;;;;;;;;;;;23.11;92.01;100978.30;1651832;85;20369;-77
2022/08/25 08:48:22;;;;;;;;;;;;;;;23.42;91.84;100967.03;1672573;85;20455;-77
2022/08/25 08:51:23;;;;;;;;;;;;;;;23.43;91.35;100966.50;1651685;85;21947;-77
2022/08/25 08:54:07;;;;;;;;;;;;;;;23.37;90.97;100968.24;1617610;86;20146;-78
2022/08/25 08:56:41;;;;;;;;;;;;;;;23.35;90.67;100967.14;1654470;85;20119;-78
2022/08/25 08:59:18;;;;;;;;;;;;;;;23.36;90.37;100968.77;1659066;85;20571;-78
2022/08/25 09:01:49;;;;;;;;;;;;;;;23.38;90.10;100970.73;1655270;85;20466;-78
2022/08/25 09:04:36;;;;;;;;;;;;;;;23.39;89.78;100966.13;1655933;85;21857;-77
2022/08/25 09:07:04;;;;;;;;;;;;;;;23.44;89.52;100966.25;1636201;86;20220;-77
2022/08/25 09:09:32;;;;;;;;;;;;;;;23.67;89.36;100966.73;1659516;85;20167;-77
2022/08/25 09:12:20;;;;;;;;;;;;;;;24.08;89.28;100966.42;1649868;85;21084;-77
2022/08/25 09:15:02;;;;;;;;;;;;;;;24.38;88.74;100959.90;1649829;85;20447;-78
2022/08/25 09:17:51;;;;;;;;;;;;;;;24.48;88.01;100955.97;1681734;85;21795;-79
2022/08/25 09:20:24;;;;;;;;;;;;;;;24.47;87.53;100954.31;1656839;85;20892;-79
2022/08/25 09:23:11;;;;;;;;;;;;;;;24.46;87.12;100951.28;1664827;85;20170;-78
2022/08/25 09:26:01;;;;;;;;;;;;;;;24.62;86.83;100953.20;1661089;84;20344;-78
2022/08/25 09:28:30;;;;;;;;;;;;;;;24.86;86.31;100947.88;1652647;85;20127;-77
2022/08/25 09:31:15;;;;;;;;;;;;;;;24.94;85.52;100948.82;1660912;85;21916;-78
2022/08/25 09:33:41;;;;;;;;;;;;;;;24.77;84.75;100949.36;1659909;85;21184;-79
2022/08/25 09:36:07;;;;;;;;;;;;;;;24.60;84.28;100941.70;1659139;85;20191;-79
2022/08/25 09:38:33;;;;;;;;;;;;;;;24.59;84.08;100941.44;1669646;85;20395;-79
2022/08/25 09:40:59;;;;;;;;;;;;;;;24.61;83.79;100936.54;1663063;85;20459;-79
2022/08/25 09:43:34;;;;;;;;;;;;;;;24.56;83.47;100947.39;1667549;85;21819;-79
2022/08/25 09:46:06;;;;;;;;;;;;;;;24.61;83.30;100936.00;1666398;85;20146;-79
2022/08/25 09:48:48;;;;;;;;;;;;;;;24.59;83.08;100936.81;1699689;83;20113;-78
2022/08/25 09:51:31;;;;;;;;;;;;;;;24.45;82.73;100934.66;1693470;83;20543;-79
2022/08/25 09:54:15;;;;;;;;;;;;;;;24.48;82.65;100935.52;1696061;83;20464;-79
2022/08/25 09:56:51;;;;;;;;;;;;;;;24.44;82.46;100935.72;1700928;83;21829;-79
2022/08/25 09:59:26;;;;;;;;;;;;;;;24.41;82.33;100936.22;1698494;83;20550;-79
2022/08/25 10:01:54;;;;;;;;;;;;;;;24.51;82.30;100937.22;1694808;83;20139;-78
2022/08/25 10:04:35;;;;;;;;;;;;;;;24.67;82.23;100930.08;1688666;83;20768;-78
2022/08/25 10:07:03;;;;;;;;;;;;;;;24.92;82.17;100933.22;1692927;83;20174;-77
2022/08/25 10:09:40;;;;;;;;;;;;;;;24.93;81.93;100925.33;1704246;83;22567;-79
2022/08/25 10:12:19;;;;;;;;;;;;;;;25.03;81.90;100918.64;1693258;83;20152;-78
2022/08/25 10:14:46;;;;;;;;;;;;;;;25.19;81.77;100920.48;1687089;83;20155;-79
2022/08/25 10:17:26;;;;;;;;;;;;;;;25.16;81.67;100917.44;1696573;83;20459;-79
2022/08/25 10:19:55;;;;;;;;;;;;;;;25.28;81.57;100905.86;1697756;83;20397;-79
2022/08/25 10:22:24;;;;;;;;;;;;;;;25.24;81.25;100904.18;1711418;83;21721;-79
2022/08/25 10:24:50;;;;;;;;;;;;;;;25.16;81.17;100903.25;1697753;83;20146;-79
2022/08/25 10:27:35;;;;;;;;;;;;;;;25.26;81.22;100900.64;1696629;83;20185;-79
2022/08/25 10:30:07;;;;;;;;;;;;;;;25.44;81.11;100888.56;1685337;83;20468;-77
2022/08/25 10:33:10;;;;;;;;;;;;;;;25.59;80.90;100892.05;1694934;83;20391;-79
2022/08/25 10:36:11;;;;;;;;;;;;;;;25.68;80.68;100887.79;1685645;83;21796;-78
2022/08/25 10:38:42;;;;;;;;;;;;;;;25.82;80.36;100879.46;1684863;83;20138;-79
2022/08/25 10:41:33;;;;;;;;;;;;;;;26.00;79.94;100874.16;1690174;83;20094;-78
2022/08/25 10:47:34;;;;;;;;;;;;;;;26.17;79.01;100870.24;1690086;83;20139;-79
2022/08/25 10:50:10;;;;;;;;;;;;;;;26.31;78.59;100865.15;1669692;83;22093;-78
2022/08/25 10:52:39;;;;;;;;;;;;;;;26.37;78.05;100863.27;1670754;83;20105;-78
2022/08/25 10:55:15;;;;;;;;;;;;;;;26.36;77.64;100864.34;1686030;83;20115;-78
2022/08/25 10:57:44;;;;;;;;;;;;;;;26.40;77.44;100861.36;1695577;83;20379;-79
2022/08/25 11:00:15;;;;;;;;;;;;;;;26.15;77.07;100855.95;1702053;83;20109;-79
2022/08/25 11:03:18;;;;;;;;;;;;;;;26.09;77.12;100847.98;1701254;83;21821;-79
2022/08/25 11:06:05;;;;;;;;;;;;;;;25.91;76.90;100849.73;1697601;83;20115;-79
2022/08/25 11:08:37;;;;;;;;;;;;;;;25.95;76.81;100847.59;1694645;83;20140;-78
2022/08/25 11:11:24;;;;;;;;;;;;;;;26.12;76.52;100850.19;1700804;83;20406;-79
2022/08/25 11:14:06;;;;;;;;;;;;;;;26.25;76.27;100851.96;1702770;83;20426;-79
2022/08/25 11:16:38;;;;;;;;;;;;;;;26.30;76.11;100841.61;1683205;83;22034;-79
2022/08/25 11:19:08;;;;;;;;;;;;;;;26.29;76.02;100838.05;1698601;83;20733;-79
2022/08/25 11:21:44;;;;;;;;;;;;;;;26.45;75.94;100838.16;1696318;83;20206;-77
2022/08/25 11:24:46;;;;;;;;;;;;;;;26.49;75.79;100831.08;1700270;83;20398;-79
2022/08/25 11:27:14;;;;;;;;;;;;;;;26.59;75.54;100833.87;1700375;83;20155;-77
2022/08/25 11:29:40;;;;;;;;;;;;;;;26.58;75.24;100834.95;1712581;83;22495;-78
2022/08/25 11:32:06;;;;;;;;;;;;;;;26.73;75.24;100837.78;1701938;83;20219;-78
2022/08/25 11:34:34;;;;;;;;;;;;;;;26.73;74.92;100833.67;1708193;83;20244;-78
2022/08/25 11:37:14;;;;;;;;;;;;;;;26.69;74.78;100831.19;1692925;83;20388;-78
2022/08/25 11:39:56;;;;;;;;;;;;;;;26.72;74.66;100830.65;1698784;83;20114;-78
2022/08/25 11:42:34;;;;;;;;;;;;;;;26.76;74.40;100826.30;1688818;83;21974;-79
2022/08/25 11:45:37;;;;;;;;;;;;;;;26.87;74.14;100825.30;1688982;83;20851;-79
2022/08/25 11:48:19;;;;;;;;;;;;;;;26.95;73.93;100822.02;1691529;83;20455;-79
2022/08/25 11:51:09;;;;;;;;;;;;;;;26.97;73.72;100818.48;1693762;83;20367;-79
2022/08/25 11:53:41;;;;;;;;;;;;;;;26.95;73.49;100813.80;1698331;83;20118;-78
2022/08/25 11:56:09;;;;;;;;;;;;;;;26.83;73.31;100813.23;1691189;83;21925;-78
2022/08/25 11:58:49;;;;;;;;;;;;;;;26.81;73.11;100812.08;1693037;83;20163;-79
2022/08/25 12:01:43;;;;;;;;;;;;;;;26.66;72.90;100804.36;1675431;83;20179;-79
2022/08/25 12:04:32;;;;;;;;;;;;;;;26.70;72.94;100801.37;1693110;83;20465;-79
2022/08/25 12:07:12;;;;;;;;;;;;;;;26.82;72.91;100806.09;1692237;83;20171;-79
2022/08/25 12:09:54;;;;;;;;;;;;;;;26.90;72.77;100808.33;1692798;83;21797;-79
2022/08/25 12:12:31;;;;;;;;;;;;;;;27.00;72.67;100805.63;1693001;83;20444;-79
2022/08/25 12:15:25;;;;;;;;;;;;;;;27.06;72.58;100805.91;1693008;83;20151;-79
2022/08/25 12:18:10;;;;;;;;;;;;;;;26.90;72.33;100806.13;1692984;83;20419;-79
2022/08/25 12:20:55;;;;;;;;;;;;;;;26.99;72.32;100797.13;1691873;83;20151;-78
2022/08/25 12:23:41;;;;;;;;;;;;;;;27.05;72.00;100798.81;1659431;83;22608;-78
2022/08/25 12:26:30;;;;;;;;;;;;;;;27.15;71.71;100797.47;1704041;83;20674;-79
2022/08/25 12:29:12;;;;;;;;;;;;;;;27.22;71.28;100796.67;1692483;83;20163;-79
2022/08/25 12:32:05;;;;;;;;;;;;;;;27.18;71.02;100788.71;1693201;83;20370;-79
2022/08/25 12:34:36;;;;;;;;;;;;;;;27.31;70.86;100784.62;1692738;83;20151;-79
2022/08/25 12:37:19;;;;;;;;;;;;;;;27.36;70.73;100780.53;1693076;83;21973;-77
2022/08/25 12:39:51;;;;;;;;;;;;;;;27.38;70.62;100777.50;1693074;83;20937;-78
2022/08/25 12:42:38;;;;;;;;;;;;;;;27.51;70.49;100782.51;1693077;83;20426;-77
2022/08/25 12:45:22;;;;;;;;;;;;;;;27.47;70.27;100777.30;1692819;83;20543;-77
2022/08/25 12:47:48;;;;;;;;;;;;;;;27.47;70.05;100769.90;1690942;83;20168;-77
2022/08/25 12:50:41;;;;;;;;;;;;;;;27.53;69.94;100767.97;1693183;83;21858;-78
2022/08/25 12:53:23;;;;;;;;;;;;;;;27.53;69.73;100761.95;1692406;83;20240;-77
2022/08/25 12:55:52;;;;;;;;;;;;;;;27.51;69.45;100763.33;1617172;83;20155;-77
2022/08/25 12:58:18;;;;;;;;;;;;;;;27.58;69.45;100767.99;1693103;83;20381;-77